Time;durP1;ratioP1;P1;durP2;ratioP2;P2;SDS_P1;SDS_P2;PMS_P1;PMS_P2;Temp;Humidity;BMP_temperature;BMP_pressure;BME280_temperature;BME280_humidity;BME280_pressure;Samples;Min_cycle;Max_cycle;Signal;HPM_P1;HPM_P2
2023/08/25 00:00:58;;;;;;;;;;;;;;;28.26;28.84;100430.00;5073077;28;19966;-68
2023/08/25 00:03:24;;;;;;;;;;;;;;;28.27;28.80;100423.38;5072684;28;19924;-68
2023/08/25 00:05:53;;;;;;;;;;;;;;;28.33;28.42;100418.53;5072763;28;19920;-68
2023/08/25 00:08:18;;;;;;;;;;;;;;;28.30;28.93;100414.44;5073241;28;20020;-68
2023/08/25 00:10:44;;;;;;;;;;;;;;;28.29;29.44;100415.59;5055892;28;20409;-68
2023/08/25 00:13:09;;;;;;;;;;;;;;;28.30;28.81;100408.09;5055087;28;19912;-68
2023/08/25 00:15:34;;;;;;;;;;;;;;;28.29;29.35;100409.25;5072793;28;19913;-68
2023/08/25 00:17:59;;;;;;;;;;;;;;;28.25;29.05;100408.22;5073007;28;19917;-68
2023/08/25 00:20:25;;;;;;;;;;;;;;;28.25;29.10;100411.00;5072699;28;19965;-69
2023/08/25 00:22:51;;;;;;;;;;;;;;;28.23;29.48;100410.50;5072570;28;19916;-69
2023/08/25 00:25:16;;;;;;;;;;;;;;;28.19;29.58;100408.38;5072477;28;19924;-69
2023/08/25 00:27:41;;;;;;;;;;;;;;;28.18;29.82;100409.50;5071458;28;19912;-69
2023/08/25 00:30:10;;;;;;;;;;;;;;;28.18;29.61;100400.41;5072716;28;20484;-69
2023/08/25 00:32:35;;;;;;;;;;;;;;;28.15;30.21;100395.50;5072795;28;19912;-68
2023/08/25 00:35:01;;;;;;;;;;;;;;;28.18;29.72;100405.94;5072741;28;19958;-68
2023/08/25 00:37:26;;;;;;;;;;;;;;;28.21;29.65;100397.00;5072570;28;20383;-68
2023/08/25 00:39:51;;;;;;;;;;;;;;;28.25;29.48;100397.19;5071953;28;20042;-68
2023/08/25 00:42:16;;;;;;;;;;;;;;;28.28;29.66;100391.84;5072537;28;19942;-68
2023/08/25 00:44:42;;;;;;;;;;;;;;;28.24;29.95;100388.09;5072668;28;19916;-68
2023/08/25 00:47:07;;;;;;;;;;;;;;;28.23;29.83;100386.47;5072465;28;20353;-68
2023/08/25 00:49:33;;;;;;;;;;;;;;;28.22;29.70;100376.53;5075943;28;19923;-68
2023/08/25 00:51:59;;;;;;;;;;;;;;;28.23;29.84;100369.91;5076370;28;19921;-68
2023/08/25 00:54:25;;;;;;;;;;;;;;;28.22;29.57;100372.97;5075461;28;19913;-68
2023/08/25 00:56:51;;;;;;;;;;;;;;;28.17;30.04;100373.91;5075996;28;20026;-68
2023/08/25 00:59:17;;;;;;;;;;;;;;;28.18;29.94;100368.06;5075468;28;20399;-68
2023/08/25 01:01:44;;;;;;;;;;;;;;;28.22;30.27;100361.94;5076039;28;19912;-68
2023/08/25 01:04:10;;;;;;;;;;;;;;;28.27;30.29;100365.38;5057677;28;20050;-68
2023/08/25 01:06:35;;;;;;;;;;;;;;;28.31;30.33;100366.38;5075859;28;19995;-68
2023/08/25 01:09:00;;;;;;;;;;;;;;;28.30;30.25;100366.69;5075939;28;19912;-68
2023/08/25 01:11:35;;;;;;;;;;;;;;;28.28;30.06;100378.03;5076621;28;19913;-68
2023/08/25 01:14:34;;;;;;;;;;;;;;;28.25;30.22;100375.94;5076004;28;19913;-68
2023/08/25 01:17:09;;;;;;;;;;;;;;;28.19;30.42;100375.25;5031583;28;19913;-68
2023/08/25 01:19:50;;;;;;;;;;;;;;;28.10;30.80;100376.28;5075860;28;19923;-68
2023/08/25 01:22:17;;;;;;;;;;;;;;;28.09;30.61;100386.53;5075612;28;19913;-68
2023/08/25 01:24:42;;;;;;;;;;;;;;;28.09;30.55;100386.53;5075882;28;19955;-67
2023/08/25 01:27:08;;;;;;;;;;;;;;;28.14;30.84;100382.84;5075535;28;20292;-68
2023/08/25 01:29:34;;;;;;;;;;;;;;;28.11;30.62;100394.50;5075388;28;20338;-68
2023/08/25 01:31:59;;;;;;;;;;;;;;;28.08;30.56;100386.84;5075755;28;19912;-68
2023/08/25 01:34:25;;;;;;;;;;;;;;;28.10;30.43;100390.09;5075524;28;20329;-68
2023/08/25 01:37:10;;;;;;;;;;;;;;;28.12;30.44;100379.53;5074624;28;19912;-68
2023/08/25 01:39:37;;;;;;;;;;;;;;;28.14;30.62;100378.13;5075697;28;20328;-68
2023/08/25 01:42:05;;;;;;;;;;;;;;;28.13;30.74;100370.94;5075500;28;19919;-68
2023/08/25 01:44:31;;;;;;;;;;;;;;;28.12;30.25;100376.78;5056961;28;20387;-68
2023/08/25 01:47:00;;;;;;;;;;;;;;;28.10;29.94;100382.66;5075534;28;19962;-68
2023/08/25 01:49:27;;;;;;;;;;;;;;;28.10;30.06;100379.88;5055040;28;20374;-68
2023/08/25 01:51:53;;;;;;;;;;;;;;;28.06;30.23;100370.56;5067852;28;20369;-68
2023/08/25 01:54:18;;;;;;;;;;;;;;;28.03;30.28;100373.16;5074377;28;19947;-69
2023/08/25 01:56:44;;;;;;;;;;;;;;;28.02;30.17;100374.28;5075020;28;19944;-68
2023/08/25 01:59:09;;;;;;;;;;;;;;;28.05;29.76;100373.69;5074710;28;20360;-69
2023/08/25 02:01:34;;;;;;;;;;;;;;;27.97;29.94;100372.44;5048997;28;20295;-67
2023/08/25 02:04:03;;;;;;;;;;;;;;;27.91;30.15;100366.25;5064540;28;19921;-67
2023/08/25 02:06:28;;;;;;;;;;;;;;;27.91;30.28;100368.19;5073548;28;19924;-67
2023/08/25 02:08:53;;;;;;;;;;;;;;;27.94;30.04;100368.38;5056666;28;20013;-69
2023/08/25 02:11:18;;;;;;;;;;;;;;;27.91;29.92;100374.53;5074719;28;19927;-69
2023/08/25 02:13:44;;;;;;;;;;;;;;;27.92;30.08;100370.66;5074561;28;19912;-69
2023/08/25 02:16:09;;;;;;;;;;;;;;;27.90;30.18;100369.34;5074812;28;19939;-69
2023/08/25 02:18:34;;;;;;;;;;;;;;;27.88;29.73;100368.78;5074399;28;19970;-69
2023/08/25 02:21:00;;;;;;;;;;;;;;;27.87;29.74;100367.16;5074669;28;19920;-69
2023/08/25 02:23:25;;;;;;;;;;;;;;;27.85;29.89;100369.41;5074546;28;19913;-69
2023/08/25 02:25:53;;;;;;;;;;;;;;;27.84;30.11;100362.25;5074407;28;20027;-69
2023/08/25 02:28:18;;;;;;;;;;;;;;;27.79;30.09;100366.78;5056674;28;19912;-69
2023/08/25 02:30:44;;;;;;;;;;;;;;;27.78;30.00;100347.75;5074504;28;19912;-69
2023/08/25 02:33:09;;;;;;;;;;;;;;;27.80;30.20;100351.84;5073983;28;20277;-69
2023/08/25 02:35:36;;;;;;;;;;;;;;;27.78;30.16;100354.09;5074365;28;20318;-69
2023/08/25 02:38:01;;;;;;;;;;;;;;;27.79;29.94;100354.94;5074124;28;19917;-69
2023/08/25 02:40:27;;;;;;;;;;;;;;;27.78;30.09;100356.84;5073876;28;19916;-69
2023/08/25 02:42:56;;;;;;;;;;;;;;;27.76;30.32;100355.53;5073653;28;19938;-68
2023/08/25 02:45:22;;;;;;;;;;;;;;;27.74;30.31;100349.53;5073840;28;19920;-68
2023/08/25 02:47:47;;;;;;;;;;;;;;;27.72;30.21;100351.78;5074067;28;19969;-69
2023/08/25 02:50:13;;;;;;;;;;;;;;;27.69;30.61;100344.13;5073857;28;20361;-69
2023/08/25 02:52:38;;;;;;;;;;;;;;;27.66;30.93;100353.03;5055915;28;19912;-69
2023/08/25 02:55:05;;;;;;;;;;;;;;;27.59;31.17;100351.50;5072829;28;19978;-69
2023/08/25 02:57:30;;;;;;;;;;;;;;;27.58;30.75;100343.53;5073807;28;19916;-69
2023/08/25 02:59:57;;;;;;;;;;;;;;;27.60;30.90;100344.06;5073847;28;19929;-69
2023/08/25 03:02:22;;;;;;;;;;;;;;;27.54;31.67;100348.03;5073704;28;19939;-69
2023/08/25 03:04:47;;;;;;;;;;;;;;;27.51;31.48;100343.97;5055778;28;19921;-69
2023/08/25 03:07:13;;;;;;;;;;;;;;;27.48;32.41;100352.84;5073825;28;20319;-68
2023/08/25 03:09:38;;;;;;;;;;;;;;;27.15;34.10;100341.13;5073491;28;19923;-68
2023/08/25 03:12:03;;;;;;;;;;;;;;;26.87;33.46;100340.34;5072936;28;19966;-68
2023/08/25 03:14:29;;;;;;;;;;;;;;;27.04;32.72;100335.03;5073467;28;19927;-68
2023/08/25 03:16:54;;;;;;;;;;;;;;;27.18;32.43;100326.75;5073122;28;20369;-68
2023/08/25 03:19:19;;;;;;;;;;;;;;;27.16;33.15;100327.06;5073494;28;19923;-68
2023/08/25 03:21:44;;;;;;;;;;;;;;;27.15;32.83;100324.59;5072966;28;20368;-68
2023/08/25 03:24:10;;;;;;;;;;;;;;;27.24;33.51;100323.56;5073051;28;19939;-68
2023/08/25 03:26:35;;;;;;;;;;;;;;;27.30;32.68;100316.00;5055087;28;20257;-68
2023/08/25 03:29:00;;;;;;;;;;;;;;;27.30;32.78;100313.25;5073312;28;19995;-68
2023/08/25 03:31:25;;;;;;;;;;;;;;;27.35;32.60;100315.91;5073186;28;19912;-68
2023/08/25 03:33:51;;;;;;;;;;;;;;;27.39;32.12;100305.88;5055060;28;19973;-68
2023/08/25 03:36:16;;;;;;;;;;;;;;;27.44;32.07;100310.47;5055359;28;19920;-68
2023/08/25 03:38:41;;;;;;;;;;;;;;;27.48;31.90;100316.19;5073211;28;19923;-68
2023/08/25 03:41:07;;;;;;;;;;;;;;;27.50;31.92;100300.94;5073036;28;20309;-68
2023/08/25 03:43:35;;;;;;;;;;;;;;;27.50;32.42;100309.22;5073066;28;20458;-68
2023/08/25 03:46:00;;;;;;;;;;;;;;;27.42;32.71;100299.75;5073031;28;20353;-68
2023/08/25 03:48:25;;;;;;;;;;;;;;;27.31;32.31;100300.31;5073105;28;20000;-68
2023/08/25 03:50:51;;;;;;;;;;;;;;;27.23;33.14;100294.38;5073430;28;19928;-68
2023/08/25 03:53:16;;;;;;;;;;;;;;;27.27;32.52;100291.84;5073153;28;20427;-68
2023/08/25 03:55:41;;;;;;;;;;;;;;;27.22;32.51;100291.91;5072626;28;19913;-68
2023/08/25 03:58:06;;;;;;;;;;;;;;;27.29;31.64;100297.03;5073007;28;19962;-68
2023/08/25 04:00:32;;;;;;;;;;;;;;;27.33;31.81;100290.59;5072583;28;19919;-68
2023/08/25 04:02:57;;;;;;;;;;;;;;;27.35;31.86;100284.75;5072548;28;20349;-68
2023/08/25 04:05:22;;;;;;;;;;;;;;;27.25;31.78;100288.53;5072935;28;19912;-68
2023/08/25 04:07:48;;;;;;;;;;;;;;;27.23;31.88;100288.03;5073106;28;19919;-68
2023/08/25 04:10:14;;;;;;;;;;;;;;;27.25;31.72;100288.53;5072908;28;20261;-68
2023/08/25 04:12:39;;;;;;;;;;;;;;;27.24;32.06;100287.72;5071685;28;19913;-68
2023/08/25 04:15:05;;;;;;;;;;;;;;;27.31;31.77;100290.09;5071454;28;20002;-68
2023/08/25 04:17:34;;;;;;;;;;;;;;;27.13;32.58;100299.28;5073037;28;19912;-68
2023/08/25 04:19:59;;;;;;;;;;;;;;;27.09;32.47;100301.84;5072717;28;19916;-68
2023/08/25 04:22:24;;;;;;;;;;;;;;;27.09;32.17;100306.53;5073107;28;19912;-68
2023/08/25 04:24:50;;;;;;;;;;;;;;;27.13;32.42;100304.78;5076895;28;19936;-68
2023/08/25 04:27:15;;;;;;;;;;;;;;;27.17;32.34;100301.13;5076819;28;19927;-68
2023/08/25 04:29:40;;;;;;;;;;;;;;;27.22;32.22;100298.25;5076751;28;20336;-68
2023/08/25 04:32:06;;;;;;;;;;;;;;;27.26;32.47;100300.41;5076304;28;20276;-68
2023/08/25 04:34:34;;;;;;;;;;;;;;;27.30;32.48;100298.66;5076662;28;19916;-69
2023/08/25 04:36:59;;;;;;;;;;;;;;;27.32;32.02;100305.53;5076182;28;20472;-69
2023/08/25 04:39:25;;;;;;;;;;;;;;;27.32;32.11;100302.75;5076123;28;19931;-69
2023/08/25 04:41:50;;;;;;;;;;;;;;;27.29;32.00;100302.56;5076081;28;19916;-69
2023/08/25 04:44:15;;;;;;;;;;;;;;;27.27;32.51;100304.81;5076294;28;19960;-69
2023/08/25 04:46:40;;;;;;;;;;;;;;;27.25;32.47;100302.34;5075623;28;19923;-68
2023/08/25 04:49:06;;;;;;;;;;;;;;;27.16;32.52;100306.94;5076084;28;19916;-68
2023/08/25 04:51:32;;;;;;;;;;;;;;;27.13;32.88;100310.31;5075879;28;19966;-68
2023/08/25 04:53:57;;;;;;;;;;;;;;;27.14;32.69;100309.19;5075580;28;19962;-68
2023/08/25 04:56:23;;;;;;;;;;;;;;;27.12;32.54;100306.75;5058391;28;19917;-67
2023/08/25 04:58:48;;;;;;;;;;;;;;;27.08;32.60;100296.63;5076914;28;19916;-68
2023/08/25 05:01:14;;;;;;;;;;;;;;;27.04;32.79;100312.97;5076666;28;19920;-67
2023/08/25 05:03:39;;;;;;;;;;;;;;;27.02;33.03;100310.53;5076929;28;19920;-67
2023/08/25 05:06:04;;;;;;;;;;;;;;;27.01;32.88;100308.09;5076164;28;19912;-67
2023/08/25 05:08:29;;;;;;;;;;;;;;;26.99;32.91;100302.06;5075969;28;19912;-67
2023/08/25 05:10:55;;;;;;;;;;;;;;;27.01;32.85;100308.09;5076291;28;20269;-67
2023/08/25 05:13:20;;;;;;;;;;;;;;;26.89;33.65;100305.03;5076234;28;20010;-67
2023/08/25 05:15:45;;;;;;;;;;;;;;;26.78;34.20;100305.25;5076354;28;19912;-65
2023/08/25 05:18:10;;;;;;;;;;;;;;;26.74;34.39;100306.97;5074649;28;20303;-67
2023/08/25 05:20:36;;;;;;;;;;;;;;;26.62;34.24;100301.97;5075780;28;19950;-67
2023/08/25 05:23:02;;;;;;;;;;;;;;;26.70;34.21;100296.88;5076213;28;19916;-67
2023/08/25 05:25:28;;;;;;;;;;;;;;;26.72;34.30;100289.94;5075385;28;19938;-67
2023/08/25 05:27:53;;;;;;;;;;;;;;;26.79;33.99;100281.25;5075570;28;19916;-67
2023/08/25 05:30:19;;;;;;;;;;;;;;;26.82;34.19;100284.22;5075304;28;19942;-67
2023/08/25 05:32:45;;;;;;;;;;;;;;;26.89;34.30;100264.50;5074780;28;20006;-67
2023/08/25 05:35:11;;;;;;;;;;;;;;;26.89;33.86;100253.47;5074502;28;20353;-69
2023/08/25 05:37:36;;;;;;;;;;;;;;;26.92;34.16;100238.28;5075138;28;19913;-69
2023/08/25 05:40:02;;;;;;;;;;;;;;;26.92;33.91;100224.50;5075652;28;20293;-69
2023/08/25 05:42:28;;;;;;;;;;;;;;;26.97;33.96;100224.41;5074955;28;19991;-69
2023/08/25 05:44:54;;;;;;;;;;;;;;;26.94;34.56;100225.81;5074226;28;20007;-69
2023/08/25 05:47:20;;;;;;;;;;;;;;;26.95;34.07;100224.69;5074582;28;19912;-69
2023/08/25 05:49:45;;;;;;;;;;;;;;;26.97;34.09;100216.94;5075305;28;19920;-68
2023/08/25 05:52:10;;;;;;;;;;;;;;;26.97;34.23;100213.38;5059574;28;19913;-67
2023/08/25 05:54:35;;;;;;;;;;;;;;;26.96;34.06;100212.53;5062735;28;20307;-68
2023/08/25 05:57:01;;;;;;;;;;;;;;;26.98;33.87;100210.28;5057458;28;20359;-68
2023/08/25 05:59:26;;;;;;;;;;;;;;;26.99;33.94;100214.69;5075140;28;20567;-68
2023/08/25 06:01:51;;;;;;;;;;;;;;;26.99;33.93;100208.38;5075291;28;19923;-69
2023/08/25 06:04:17;;;;;;;;;;;;;;;27.01;34.07;100214.38;5057294;28;20329;-68
2023/08/25 06:06:44;;;;;;;;;;;;;;;26.98;34.38;100226.81;5074968;28;20057;-69
2023/08/25 06:09:09;;;;;;;;;;;;;;;26.95;34.18;100240.41;5074148;28;19923;-63
2023/08/25 06:11:34;;;;;;;;;;;;;;;26.93;34.01;100240.72;5071953;28;19917;-63
2023/08/25 06:14:00;;;;;;;;;;;;;;;26.93;33.85;100237.97;5074443;28;19919;-63
2023/08/25 06:16:26;;;;;;;;;;;;;;;26.96;33.85;100236.53;5074350;28;20430;-62
2023/08/25 06:18:51;;;;;;;;;;;;;;;26.97;33.95;100238.97;5074660;28;19939;-62
2023/08/25 06:21:17;;;;;;;;;;;;;;;27.02;33.92;100251.81;5074456;28;20365;-62
2023/08/25 06:23:42;;;;;;;;;;;;;;;27.05;33.92;100262.25;5075008;28;19913;-63
2023/08/25 06:26:07;;;;;;;;;;;;;;;27.09;34.11;100256.94;5073853;28;19916;-63
2023/08/25 06:28:33;;;;;;;;;;;;;;;27.07;34.19;100251.72;5074586;28;19916;-62
2023/08/25 06:30:59;;;;;;;;;;;;;;;27.12;33.83;100254.38;5074786;28;19916;-62
2023/08/25 06:33:29;;;;;;;;;;;;;;;27.17;33.81;100250.66;5075058;28;19954;-62
2023/08/25 06:35:54;;;;;;;;;;;;;;;27.22;33.84;100247.78;5074626;28;20282;-62
2023/08/25 06:38:20;;;;;;;;;;;;;;;27.19;34.13;100249.25;5074570;28;19970;-63
2023/08/25 06:40:47;;;;;;;;;;;;;;;27.16;34.00;100244.34;5075131;28;19962;-63
2023/08/25 06:43:12;;;;;;;;;;;;;;;27.19;34.20;100248.41;5074809;28;19916;-63
2023/08/25 06:45:38;;;;;;;;;;;;;;;27.20;34.04;100250.84;5073729;28;19923;-62
2023/08/25 06:48:04;;;;;;;;;;;;;;;27.18;33.99;100250.34;5074717;28;19939;-62
2023/08/25 06:50:30;;;;;;;;;;;;;;;27.19;34.30;100243.72;5073529;28;19926;-63
2023/08/25 06:52:55;;;;;;;;;;;;;;;27.21;34.14;100255.25;5074534;28;19917;-63
2023/08/25 06:55:22;;;;;;;;;;;;;;;27.26;34.01;100265.38;5073629;28;19916;-65
2023/08/25 06:57:47;;;;;;;;;;;;;;;27.24;33.89;100265.66;5073708;28;20003;-63
2023/08/25 07:00:13;;;;;;;;;;;;;;;27.28;33.79;100263.13;5074092;28;20011;-64
2023/08/25 07:02:43;;;;;;;;;;;;;;;27.28;34.48;100262.31;5072588;28;19917;-64
2023/08/25 07:05:09;;;;;;;;;;;;;;;27.33;34.48;100260.25;5073023;28;20546;-65
2023/08/25 07:07:35;;;;;;;;;;;;;;;27.43;34.37;100264.72;5072774;28;20032;-64
2023/08/25 07:10:01;;;;;;;;;;;;;;;27.47;34.59;100270.41;5073705;28;20303;-64
2023/08/25 07:12:26;;;;;;;;;;;;;;;27.51;34.56;100276.97;5073597;28;19913;-64
2023/08/25 07:14:52;;;;;;;;;;;;;;;27.52;34.79;100273.06;5073518;28;19920;-64
2023/08/25 07:17:17;;;;;;;;;;;;;;;27.56;34.52;100274.91;5074021;28;19942;-64
2023/08/25 07:19:43;;;;;;;;;;;;;;;27.60;34.50;100273.13;5070633;28;19920;-64
2023/08/25 07:22:08;;;;;;;;;;;;;;;27.70;34.35;100268.50;5073960;28;19912;-64
2023/08/25 07:24:33;;;;;;;;;;;;;;;27.73;34.18;100273.38;5074027;28;20015;-64
2023/08/25 07:27:00;;;;;;;;;;;;;;;27.73;34.23;100279.72;5074095;28;19916;-64
2023/08/25 07:29:25;;;;;;;;;;;;;;;27.77;34.14;100285.44;5073548;28;19919;-63
2023/08/25 07:31:51;;;;;;;;;;;;;;;27.81;34.22;100278.97;5053829;28;19913;-64
2023/08/25 07:34:16;;;;;;;;;;;;;;;27.89;34.11;100287.63;5071230;28;19912;-65
2023/08/25 07:36:43;;;;;;;;;;;;;;;27.95;33.83;100269.81;5072169;28;19916;-64
2023/08/25 07:39:08;;;;;;;;;;;;;;;28.03;33.92;100268.22;5072480;28;19917;-64
2023/08/25 07:41:33;;;;;;;;;;;;;;;28.05;33.97;100269.56;5072402;28;19919;-64
2023/08/25 07:43:59;;;;;;;;;;;;;;;28.04;33.96;100261.59;5071473;28;19912;-64
2023/08/25 07:46:24;;;;;;;;;;;;;;;28.05;33.81;100268.75;5072624;28;19923;-64
2023/08/25 07:48:50;;;;;;;;;;;;;;;28.05;33.36;100268.75;5072493;28;19912;-64
2023/08/25 07:51:16;;;;;;;;;;;;;;;28.06;33.62;100262.09;5069884;28;20373;-64
2023/08/25 07:53:41;;;;;;;;;;;;;;;28.10;33.52;100257.56;5070656;28;19916;-64
2023/08/25 07:56:08;;;;;;;;;;;;;;;28.14;33.42;100266.88;5072296;28;19912;-64
2023/08/25 07:58:33;;;;;;;;;;;;;;;28.18;33.70;100260.38;5072193;28;19925;-64
2023/08/25 08:00:58;;;;;;;;;;;;;;;28.29;33.11;100260.13;5072675;28;19919;-64
2023/08/25 08:03:24;;;;;;;;;;;;;;;28.32;33.75;100260.25;5063890;28;20419;-64
2023/08/25 08:05:49;;;;;;;;;;;;;;;28.44;33.52;100259.69;5052313;28;19913;-64
2023/08/25 08:08:14;;;;;;;;;;;;;;;28.50;33.59;100254.81;5052011;28;19958;-64
2023/08/25 08:10:40;;;;;;;;;;;;;;;28.67;33.10;100257.66;5051632;28;19925;-64
2023/08/25 08:13:05;;;;;;;;;;;;;;;28.83;33.25;100252.50;5051656;28;20007;-64
2023/08/25 08:15:31;;;;;;;;;;;;;;;28.98;33.26;100250.44;5051631;28;19941;-66
2023/08/25 08:17:56;;;;;;;;;;;;;;;29.10;32.44;100253.34;5052380;28;19913;-65
2023/08/25 08:20:22;;;;;;;;;;;;;;;29.10;33.66;100254.19;5051638;28;19921;-65
2023/08/25 08:22:47;;;;;;;;;;;;;;;29.07;32.66;100257.59;5051710;28;19928;-65
2023/08/25 08:25:14;;;;;;;;;;;;;;;29.10;32.36;100256.97;5052366;28;19917;-65
2023/08/25 08:27:40;;;;;;;;;;;;;;;29.18;32.47;100260.91;5051722;28;19917;-65
2023/08/25 08:30:06;;;;;;;;;;;;;;;29.20;32.71;100264.16;5052440;28;20003;-65
2023/08/25 08:32:31;;;;;;;;;;;;;;;29.26;32.40;100264.81;5052636;28;19992;-68
2023/08/25 08:34:56;;;;;;;;;;;;;;;29.31;32.31;100259.94;5052157;28;20378;-68
2023/08/25 08:37:22;;;;;;;;;;;;;;;29.41;32.19;100258.78;5051552;28;20003;-69
2023/08/25 08:39:47;;;;;;;;;;;;;;;29.52;31.92;100256.50;5052816;28;19921;-68
2023/08/25 08:42:13;;;;;;;;;;;;;;;29.60;32.26;100257.63;5052290;28;20007;-69
2023/08/25 08:44:43;;;;;;;;;;;;;;;29.66;32.36;100254.38;5051158;28;19970;-67
2023/08/25 08:47:09;;;;;;;;;;;;;;;29.75;32.60;100248.03;5044760;28;19921;-66
2023/08/25 08:49:36;;;;;;;;;;;;;;;29.88;32.37;100236.78;5049019;28;20368;-66
2023/08/25 08:52:03;;;;;;;;;;;;;;;30.00;31.62;100246.38;5050537;28;19923;-67
2023/08/25 08:54:30;;;;;;;;;;;;;;;30.07;31.53;100250.25;5049840;28;19933;-67
2023/08/25 08:56:56;;;;;;;;;;;;;;;30.21;31.46;100252.00;5050398;28;20004;-67
2023/08/25 08:59:22;;;;;;;;;;;;;;;30.35;31.29;100254.56;5049626;28;20011;-67
2023/08/25 09:01:51;;;;;;;;;;;;;;;30.44;31.23;100252.56;5050209;28;19920;-67
2023/08/25 09:04:18;;;;;;;;;;;;;;;30.52;31.33;100248.97;5066037;28;19920;-67
2023/08/25 09:06:44;;;;;;;;;;;;;;;30.60;30.29;100247.28;5072071;28;19962;-67
2023/08/25 09:09:10;;;;;;;;;;;;;;;30.63;30.85;100249.41;5073455;28;20302;-67
2023/08/25 09:11:36;;;;;;;;;;;;;;;30.67;29.97;100245.59;5075717;28;19913;-67
2023/08/25 09:14:04;;;;;;;;;;;;;;;30.69;30.26;100239.72;5075373;28;19916;-67
2023/08/25 09:16:30;;;;;;;;;;;;;;;30.70;29.54;100241.34;5075885;28;19937;-67
2023/08/25 09:18:58;;;;;;;;;;;;;;;30.74;30.02;100241.47;5075515;28;20011;-67
2023/08/25 09:21:24;;;;;;;;;;;;;;;30.84;29.50;100236.38;5068373;28;19916;-67
2023/08/25 09:23:53;;;;;;;;;;;;;;;30.93;29.26;100238.31;5075378;28;19919;-67
2023/08/25 09:26:19;;;;;;;;;;;;;;;31.05;29.75;100233.66;5075427;28;19919;-67
2023/08/25 09:28:44;;;;;;;;;;;;;;;31.12;29.08;100230.31;5074678;28;20003;-67
2023/08/25 09:31:19;;;;;;;;;;;;;;;31.17;28.54;100234.88;5075211;28;19916;-67
2023/08/25 09:33:45;;;;;;;;;;;;;;;31.20;28.48;100231.41;5075314;28;19916;-67
2023/08/25 09:36:10;;;;;;;;;;;;;;;31.27;29.37;100234.44;5075321;28;20395;-67
2023/08/25 09:38:35;;;;;;;;;;;;;;;31.26;28.58;100235.63;5074448;28;20265;-67
2023/08/25 09:41:01;;;;;;;;;;;;;;;31.22;27.59;100218.84;5074844;28;19938;-67
2023/08/25 09:43:30;;;;;;;;;;;;;;;31.25;28.09;100220.09;5074125;28;19970;-67
2023/08/25 09:45:55;;;;;;;;;;;;;;;31.19;27.61;100224.25;5071905;28;19970;-67
2023/08/25 09:48:21;;;;;;;;;;;;;;;31.22;27.65;100224.38;5074751;28;19913;-67
2023/08/25 09:50:49;;;;;;;;;;;;;;;31.26;27.80;100230.06;5074306;28;20479;-67
2023/08/25 09:53:15;;;;;;;;;;;;;;;31.25;27.50;100225.66;5056644;28;20383;-67
2023/08/25 09:55:41;;;;;;;;;;;;;;;31.30;27.97;100227.44;5074212;28;20041;-67
2023/08/25 09:58:07;;;;;;;;;;;;;;;31.22;27.72;100223.56;5074032;28;20007;-67
2023/08/25 10:00:33;;;;;;;;;;;;;;;31.15;28.05;100232.44;5074636;28;20519;-67
2023/08/25 10:03:01;;;;;;;;;;;;;;;31.04;28.01;100234.78;5054362;28;20036;-67
2023/08/25 10:05:27;;;;;;;;;;;;;;;30.81;27.61;100234.28;5016957;28;19913;-67
2023/08/25 10:07:53;;;;;;;;;;;;;;;30.62;27.30;100231.13;5041979;28;20536;-67
2023/08/25 10:10:18;;;;;;;;;;;;;;;30.48;28.21;100240.50;5054342;28;19965;-67
2023/08/25 10:12:44;;;;;;;;;;;;;;;30.33;28.59;100235.53;5053546;28;20410;-67
2023/08/25 10:15:10;;;;;;;;;;;;;;;30.23;28.02;100239.41;5053838;28;19916;-67
2023/08/25 10:17:36;;;;;;;;;;;;;;;30.17;28.62;100251.03;5054445;28;20300;-67
2023/08/25 10:20:04;;;;;;;;;;;;;;;30.08;28.46;100248.28;5053784;28;19991;-67
2023/08/25 10:22:30;;;;;;;;;;;;;;;29.94;27.84;100264.28;5053980;28;19958;-67
2023/08/25 10:25:00;;;;;;;;;;;;;;;29.86;27.81;100254.84;5054187;28;20382;-67
2023/08/25 10:27:25;;;;;;;;;;;;;;;29.72;28.35;100252.25;5054455;28;19912;-67
2023/08/25 10:29:51;;;;;;;;;;;;;;;29.61;28.47;100246.25;5053840;28;20289;-67
2023/08/25 10:32:16;;;;;;;;;;;;;;;29.56;28.38;100251.13;5054388;28;19919;-68
2023/08/25 10:34:43;;;;;;;;;;;;;;;29.55;28.63;100253.09;5054213;28;20003;-67
2023/08/25 10:37:12;;;;;;;;;;;;;;;29.56;28.72;100248.38;5054133;28;19931;-67
2023/08/25 10:39:51;;;;;;;;;;;;;;;29.53;28.41;100253.41;5053908;28;19986;-66
2023/08/25 10:42:27;;;;;;;;;;;;;;;29.49;28.74;100249.69;5053285;28;19919;-66
2023/08/25 10:44:54;;;;;;;;;;;;;;;29.49;28.87;100244.16;5053721;28;19978;-66
2023/08/25 10:47:20;;;;;;;;;;;;;;;29.46;28.32;100238.44;5036038;28;20383;-66
2023/08/25 10:49:45;;;;;;;;;;;;;;;29.40;28.20;100237.81;5053526;28;19967;-66
2023/08/25 10:52:14;;;;;;;;;;;;;;;29.37;28.79;100243.97;5054058;28;19952;-66
2023/08/25 10:54:46;;;;;;;;;;;;;;;29.40;28.01;100235.03;5053025;28;20288;-66
2023/08/25 10:57:21;;;;;;;;;;;;;;;29.43;28.20;100242.66;5052891;28;20443;-66
2023/08/25 10:59:50;;;;;;;;;;;;;;;29.43;28.55;100242.66;5053398;28;19917;-66
2023/08/25 11:02:32;;;;;;;;;;;;;;;29.44;28.19;100244.31;5032191;28;20350;-66
2023/08/25 11:05:18;;;;;;;;;;;;;;;29.46;28.35;100250.31;5033603;28;20366;-66
2023/08/25 11:07:43;;;;;;;;;;;;;;;29.54;28.47;100243.16;5033489;28;20489;-67
2023/08/25 11:10:14;;;;;;;;;;;;;;;29.54;28.61;100240.38;5043922;28;19966;-66
2023/08/25 11:12:40;;;;;;;;;;;;;;;29.61;28.71;100237.94;5064505;28;20019;-66
2023/08/25 11:15:09;;;;;;;;;;;;;;;29.65;28.69;100238.09;5052978;28;19919;-67
2023/08/25 11:17:34;;;;;;;;;;;;;;;29.68;28.97;100234.66;5052989;28;19912;-67
2023/08/25 11:20:00;;;;;;;;;;;;;;;29.74;28.48;100233.38;5052939;28;19916;-67
2023/08/25 11:22:25;;;;;;;;;;;;;;;29.84;28.40;100227.50;5053354;28;19913;-67
2023/08/25 11:24:50;;;;;;;;;;;;;;;29.91;28.96;100219.50;5053163;28;20015;-67
2023/08/25 11:27:16;;;;;;;;;;;;;;;30.04;28.49;100227.94;5059813;28;20011;-67
2023/08/25 11:29:45;;;;;;;;;;;;;;;30.11;28.82;100226.28;5073368;28;19948;-67
2023/08/25 11:32:13;;;;;;;;;;;;;;;30.15;28.64;100226.44;5072863;28;19919;-67
2023/08/25 11:34:38;;;;;;;;;;;;;;;30.19;28.86;100229.34;5072936;28;19920;-67
2023/08/25 11:37:04;;;;;;;;;;;;;;;30.20;28.23;100225.41;5073134;28;19913;-67
2023/08/25 11:39:29;;;;;;;;;;;;;;;30.20;28.22;100228.19;5068166;28;19924;-67
2023/08/25 11:41:55;;;;;;;;;;;;;;;30.18;28.34;100227.72;5052249;28;19916;-67
2023/08/25 11:44:22;;;;;;;;;;;;;;;30.20;28.31;100239.28;5052908;28;19913;-67
2023/08/25 11:46:47;;;;;;;;;;;;;;;30.22;27.98;100226.72;5034981;28;20427;-67
2023/08/25 11:49:13;;;;;;;;;;;;;;;30.23;28.06;100227.53;5052797;28;19912;-67
2023/08/25 11:51:39;;;;;;;;;;;;;;;30.20;28.42;100228.19;5052736;28;19920;-67
2023/08/25 11:54:04;;;;;;;;;;;;;;;30.18;28.38;100231.31;5052272;28;19920;-67
2023/08/25 11:56:30;;;;;;;;;;;;;;;30.14;28.37;100235.06;5052334;28;19916;-67
2023/08/25 11:58:55;;;;;;;;;;;;;;;30.13;28.01;100234.25;5052726;28;20265;-67
2023/08/25 12:01:21;;;;;;;;;;;;;;;30.15;28.96;100234.75;5052305;28;19913;-67
2023/08/25 12:03:47;;;;;;;;;;;;;;;30.15;28.59;100237.50;5063517;28;19920;-67
2023/08/25 12:06:12;;;;;;;;;;;;;;;30.21;28.35;100232.59;5072470;28;19924;-67
2023/08/25 12:08:41;;;;;;;;;;;;;;;30.23;28.61;100224.75;5072618;28;19916;-67
2023/08/25 12:11:07;;;;;;;;;;;;;;;30.32;28.54;100221.97;5071683;28;20012;-67
2023/08/25 12:13:35;;;;;;;;;;;;;;;30.39;28.84;100222.28;5072437;28;19956;-67
2023/08/25 12:16:02;;;;;;;;;;;;;;;30.54;29.04;100224.50;5072439;28;19944;-67
2023/08/25 12:18:34;;;;;;;;;;;;;;;30.68;29.34;100225.06;5072197;28;19928;-67
2023/08/25 12:21:00;;;;;;;;;;;;;;;30.76;29.00;100219.78;5072301;28;19956;-67
2023/08/25 12:23:31;;;;;;;;;;;;;;;30.65;29.00;100222.94;5072207;28;19920;-67
2023/08/25 12:25:56;;;;;;;;;;;;;;;30.48;28.92;100223.06;5071781;28;19916;-67
2023/08/25 12:28:21;;;;;;;;;;;;;;;30.36;29.26;100209.09;5072401;28;20380;-67
2023/08/25 12:30:47;;;;;;;;;;;;;;;30.23;29.07;100213.69;5072400;28;19927;-68